createdAt,value
2023-03-02T00:02:31.613Z,10.57
2023-03-02T00:05:34.665Z,9.75
2023-03-02T00:08:38.155Z,9.90
2023-03-02T00:11:40.390Z,10.45
2023-03-02T00:14:42.215Z,10.15
2023-03-02T00:17:44.054Z,10.63
2023-03-02T00:20:45.833Z,9.32
2023-03-02T00:23:47.617Z,9.15
2023-03-02T00:26:49.659Z,9.27
2023-03-02T00:29:51.724Z,9.60
2023-03-02T00:32:53.493Z,9.25
2023-03-02T00:35:55.310Z,9.43
2023-03-02T00:38:58.002Z,9.88
2023-03-02T00:41:59.809Z,9.40
2023-03-02T00:45:01.704Z,9.82
2023-03-02T00:48:03.511Z,10.05
2023-03-02T00:51:06.491Z,10.68
2023-03-02T00:54:08.563Z,10.93
2023-03-02T00:57:10.578Z,10.23
2023-03-02T01:00:12.809Z,9.98
2023-03-02T01:03:16.487Z,9.45
2023-03-02T01:06:21.654Z,9.52
2023-03-02T01:09:23.675Z,9.45
2023-03-02T01:12:25.697Z,10.05
2023-03-02T01:15:27.701Z,10.80
2023-03-02T01:18:29.638Z,10.50
2023-03-02T01:21:31.380Z,9.98
2023-03-02T01:24:33.829Z,9.77
2023-03-02T01:27:35.964Z,10.17
2023-03-02T01:30:37.735Z,10.52
2023-03-02T01:33:39.663Z,10.45
2023-03-02T01:36:41.546Z,10.30
2023-03-02T01:39:43.459Z,10.35
2023-03-02T01:42:52.827Z,10.25
2023-03-02T01:45:55.539Z,10.90
2023-03-02T01:49:06.690Z,11.05
2023-03-02T01:52:10.536Z,10.02
2023-03-02T01:55:15.784Z,10.45
2023-03-02T01:58:18.325Z,11.27
2023-03-02T02:01:21.361Z,9.43
2023-03-02T02:04:25.947Z,10.50
2023-03-02T02:07:28.170Z,9.75
2023-03-02T02:10:31.104Z,9.60
2023-03-02T02:13:33.304Z,10.50
2023-03-02T02:16:36.829Z,8.90
2023-03-02T02:19:58.310Z,9.40
2023-03-02T02:23:44.511Z,9.43
2023-03-02T02:26:49.794Z,9.77
2023-03-02T02:29:52.503Z,10.07
2023-03-02T02:32:55.540Z,9.60
2023-03-02T02:36:04.896Z,9.93
2023-03-02T02:39:11.744Z,9.43
2023-03-02T02:42:35.894Z,9.00
2023-03-02T02:45:37.977Z,9.40
2023-03-02T02:48:39.971Z,10.65
2023-03-02T02:51:41.969Z,9.68
2023-03-02T02:54:46.966Z,9.80
2023-03-02T02:57:51.136Z,10.32
2023-03-02T03:00:54.754Z,10.20
2023-03-02T03:04:00.617Z,9.75
2023-03-02T03:07:05.218Z,10.48
2023-03-02T03:10:35.091Z,9.93
2023-03-02T03:13:38.747Z,9.93
2023-03-02T03:16:43.240Z,9.65
2023-03-02T03:19:46.966Z,10.13
2023-03-02T03:22:48.950Z,10.20
2023-03-02T03:25:50.722Z,10.20
2023-03-02T03:28:52.844Z,9.80
2023-03-02T03:31:57.576Z,9.63
2023-03-02T03:34:59.743Z,8.95
2023-03-02T03:38:01.753Z,10.80
2023-03-02T03:41:03.602Z,10.45
2023-03-02T03:44:05.550Z,10.02
2023-03-02T03:47:07.398Z,9.75
2023-03-02T03:50:09.928Z,8.95
2023-03-02T03:53:11.964Z,9.65
2023-03-02T03:56:13.697Z,9.90
2023-03-02T03:59:19.726Z,9.85
2023-03-02T04:02:21.855Z,9.48
2023-03-02T04:05:23.919Z,9.40
2023-03-02T04:08:25.666Z,9.88
2023-03-02T04:11:27.413Z,9.75
2023-03-02T04:14:29.841Z,9.27
2023-03-02T04:17:31.920Z,9.83
2023-03-02T04:20:33.846Z,9.63
2023-03-02T04:23:35.711Z,9.40
2023-03-02T04:26:39.353Z,9.25
2023-03-02T04:29:41.830Z,9.88
2023-03-02T04:32:45.739Z,9.87
2023-03-02T04:35:47.608Z,9.23
2023-03-02T04:38:49.906Z,10.38
2023-03-02T04:41:52.231Z,10.07
2023-03-02T04:44:54.113Z,9.65
2023-03-02T04:47:55.971Z,10.30
2023-03-02T04:50:57.759Z,9.80
2023-03-02T04:54:02.333Z,10.15
2023-03-02T04:57:04.129Z,9.40
2023-03-02T05:00:09.940Z,10.20
2023-03-02T05:03:11.768Z,10.02
2023-03-02T05:06:14.363Z,10.38
2023-03-02T05:09:16.538Z,9.82
2023-03-02T05:12:19.306Z,10.68
2023-03-02T05:15:22.513Z,10.10
2023-03-02T05:18:25.502Z,11.13
2023-03-02T05:21:27.528Z,10.48
2023-03-02T05:24:29.466Z,10.15
2023-03-02T05:27:31.495Z,10.27
2023-03-02T05:30:37.518Z,10.38
2023-03-02T05:33:39.440Z,9.52
2023-03-02T05:36:41.249Z,9.70
2023-03-02T05:39:43.289Z,10.02
2023-03-02T05:42:46.110Z,9.90
2023-03-02T05:45:48.037Z,10.13
2023-03-02T05:48:49.997Z,10.00
2023-03-02T05:51:51.985Z,9.73
2023-03-02T05:54:53.902Z,9.98
2023-03-02T05:57:55.733Z,11.00
2023-03-02T06:00:57.575Z,10.30
2023-03-02T06:04:00.367Z,9.63
2023-03-02T06:07:02.375Z,9.60
2023-03-02T06:10:06.171Z,10.10
2023-03-02T06:13:08.144Z,10.40
2023-03-02T06:16:10.246Z,10.90
2023-03-02T06:19:12.176Z,10.95
2023-03-02T06:22:14.413Z,10.48
2023-03-02T06:25:19.803Z,10.88
2023-03-02T06:28:22.095Z,10.30
2023-03-02T06:31:23.960Z,10.10
2023-03-02T06:34:26.038Z,10.45
2023-03-02T06:37:31.872Z,9.50
2023-03-02T06:40:33.932Z,10.43
2023-03-02T06:43:35.830Z,9.60
2023-03-02T06:46:39.084Z,9.93
2023-03-02T06:52:43.036Z,9.43
2023-03-02T06:55:47.545Z,10.07
2023-03-02T06:58:49.497Z,9.95
2023-03-02T07:01:54.230Z,10.30
2023-03-02T07:04:56.452Z,9.68
2023-03-02T07:08:02.043Z,8.98
2023-03-02T07:11:12.719Z,9.52
2023-03-02T07:14:14.748Z,9.98
2023-03-02T07:17:16.813Z,10.10
2023-03-02T07:20:19.022Z,9.80
2023-03-02T07:23:20.825Z,9.15
2023-03-02T07:26:22.939Z,10.93
2023-03-02T07:29:24.789Z,9.75
2023-03-02T07:32:26.949Z,9.70
2023-03-02T07:35:28.905Z,9.23
2023-03-02T07:38:30.860Z,9.57
2023-03-02T07:41:33.190Z,9.60
2023-03-02T07:44:35.213Z,9.43
2023-03-02T07:47:36.985Z,9.82
2023-03-02T07:50:38.810Z,9.35
2023-03-02T07:53:40.554Z,10.57
2023-03-02T07:56:42.367Z,10.05
2023-03-02T07:59:45.012Z,9.27
2023-03-02T08:02:47.126Z,7.53
2023-03-02T08:05:49.390Z,9.18
2023-03-02T08:08:51.279Z,10.07
2023-03-02T08:11:53.321Z,8.70
2023-03-02T08:14:55.533Z,8.52
2023-03-02T08:17:57.455Z,9.07
2023-03-02T08:20:59.377Z,9.65
2023-03-02T08:24:01.272Z,9.18
2023-03-02T08:27:04.291Z,9.15
2023-03-02T08:30:08.008Z,9.25
2023-03-02T08:33:10.114Z,8.65
2023-03-02T08:36:15.732Z,8.90
2023-03-02T08:39:17.543Z,8.60
2023-03-02T08:42:19.455Z,9.10
2023-03-02T08:45:21.434Z,8.75
2023-03-02T08:48:23.834Z,11.38
2023-03-02T08:51:26.685Z,10.37
2023-03-02T08:54:28.515Z,31.52
2023-03-02T08:57:30.481Z,45.10
2023-03-02T09:00:32.873Z,36.50
2023-03-02T09:03:34.977Z,9.43
2023-03-02T09:06:40.650Z,11.57
2023-03-02T09:09:42.585Z,9.70
2023-03-02T09:12:45.180Z,9.52
2023-03-02T09:15:47.002Z,9.48
2023-03-02T09:18:48.816Z,10.75
2023-03-02T09:21:51.230Z,10.32
2023-03-02T09:24:53.229Z,10.60
2023-03-02T09:27:55.123Z,10.63
2023-03-02T09:31:13.041Z,9.75
2023-03-02T09:34:15.526Z,9.85
2023-03-02T09:37:17.844Z,10.50
2023-03-02T09:40:23.193Z,9.85
2023-03-02T09:43:42.386Z,11.85
2023-03-02T09:46:47.849Z,11.90
2023-03-02T09:50:20.130Z,10.68
2023-03-02T09:53:44.444Z,10.57
2023-03-02T09:56:55.045Z,11.75
2023-03-02T10:00:22.210Z,9.57
2023-03-02T10:03:32.147Z,10.00
2023-03-02T10:06:34.303Z,10.48
2023-03-02T10:09:36.578Z,12.82
2023-03-02T10:13:02.720Z,14.25
2023-03-02T10:16:11.126Z,14.05
2023-03-02T10:19:42.372Z,11.60
2023-03-02T10:22:52.728Z,23.83
2023-03-02T10:26:06.189Z,13.77
2023-03-02T10:29:10.966Z,10.52
2023-03-02T10:32:24.445Z,9.82
2023-03-02T10:35:29.301Z,11.93
2023-03-02T10:38:32.561Z,13.85
2023-03-02T10:41:43.642Z,12.68
2023-03-02T10:44:55.073Z,14.00
2023-03-02T10:48:05.491Z,10.57
2023-03-02T10:51:07.383Z,11.57
2023-03-02T10:54:14.434Z,14.00
2023-03-02T10:57:28.734Z,14.15
2023-03-02T11:00:32.407Z,18.23
2023-03-02T11:03:35.139Z,14.98
2023-03-02T11:06:36.888Z,13.65
2023-03-02T11:09:39.499Z,19.02
2023-03-02T11:12:46.996Z,30.90
2023-03-02T11:15:51.048Z,17.02
2023-03-02T11:18:54.879Z,23.33
2023-03-02T11:22:00.369Z,23.13
2023-03-02T11:25:12.657Z,19.27
2023-03-02T11:28:27.800Z,23.75
2023-03-02T11:31:50.687Z,15.68
2023-03-02T11:35:15.324Z,15.47
2023-03-02T11:38:21.566Z,15.55
2023-03-02T11:41:30.172Z,16.60
2023-03-02T11:44:32.039Z,16.45
2023-03-02T11:47:36.709Z,22.80
2023-03-02T11:50:53.944Z,20.15
2023-03-02T11:54:03.577Z,17.30
2023-03-02T11:57:05.556Z,13.40
2023-03-02T12:00:34.036Z,12.90
2023-03-02T12:03:38.964Z,10.02
2023-03-02T12:06:44.118Z,12.35
2023-03-02T12:10:05.118Z,11.18
2023-03-02T12:13:21.070Z,10.00
2023-03-02T12:16:36.841Z,11.48
2023-03-02T12:19:42.673Z,11.10
2023-03-02T12:22:44.573Z,11.30
2023-03-02T12:25:51.424Z,10.63
2023-03-02T12:29:07.396Z,9.68
2023-03-02T12:32:29.188Z,10.23
2023-03-02T12:35:34.470Z,10.63
2023-03-02T12:38:42.588Z,10.57
2023-03-02T12:42:02.788Z,9.75
2023-03-02T12:45:20.331Z,9.88
2023-03-02T12:48:30.629Z,10.32
2023-03-02T12:51:57.636Z,9.10
2023-03-02T12:55:18.279Z,8.98
2023-03-02T12:58:27.790Z,9.82
2023-03-02T13:01:31.670Z,10.10
2023-03-02T13:04:33.533Z,9.98
2023-03-02T13:08:04.263Z,9.80
2023-03-02T13:11:06.546Z,8.70
2023-03-02T13:14:21.246Z,9.93
2023-03-02T13:17:32.098Z,9.60
2023-03-02T13:20:34.262Z,9.00
2023-03-02T13:23:36.400Z,9.20
2023-03-02T13:26:39.872Z,9.18
2023-03-02T13:29:42.087Z,9.30
2023-03-02T13:32:51.739Z,9.27
2023-03-02T13:35:53.694Z,9.20
2023-03-02T13:38:59.380Z,9.68
2023-03-02T13:42:03.414Z,9.75
2023-03-02T13:45:29.649Z,8.68
2023-03-02T13:48:32.139Z,9.60
2023-03-02T13:51:47.080Z,10.05
2023-03-02T13:54:49.184Z,9.60
2023-03-02T13:57:53.359Z,9.40
2023-03-02T14:00:55.444Z,9.25
2023-03-02T14:03:57.497Z,9.18
2023-03-02T14:06:59.473Z,9.05
2023-03-02T14:10:01.308Z,9.60
2023-03-02T14:13:07.578Z,9.20
2023-03-02T14:16:14.392Z,10.45
2023-03-02T14:19:18.431Z,9.73
2023-03-02T14:22:22.320Z,7.97
2023-03-02T14:25:24.903Z,9.18
2023-03-02T14:28:33.211Z,9.30
2023-03-02T14:31:35.772Z,8.77
2023-03-02T14:34:38.961Z,9.07
2023-03-02T14:37:45.794Z,8.48
2023-03-02T14:40:47.810Z,9.27
2023-03-02T14:43:50.039Z,9.50
2023-03-02T14:46:52.941Z,8.65
2023-03-02T14:49:54.821Z,8.10
2023-03-02T14:52:58.173Z,9.60
2023-03-02T14:59:02.572Z,8.05
2023-03-02T15:02:15.919Z,8.70
2023-03-02T15:05:25.167Z,7.95
2023-03-02T15:08:26.996Z,8.30
2023-03-02T15:11:29.713Z,8.25
2023-03-02T15:14:35.055Z,8.75
2023-03-02T15:17:40.148Z,14.75
2023-03-02T15:20:42.006Z,14.43
2023-03-02T15:23:44.480Z,24.58
2023-03-02T15:26:46.504Z,11.20
2023-03-02T15:29:48.634Z,68.88
2023-03-02T15:32:51.474Z,21.42
2023-03-02T15:35:55.426Z,11.48
2023-03-02T15:38:57.476Z,8.13
2023-03-02T15:42:00.614Z,8.00
2023-03-02T15:45:02.816Z,7.60
2023-03-02T15:48:05.109Z,8.40
2023-03-02T15:51:08.373Z,7.15
2023-03-02T15:54:11.737Z,7.05
2023-03-02T15:57:13.724Z,8.02
2023-03-02T16:00:16.226Z,8.00
2023-03-02T16:03:19.338Z,8.40
2023-03-02T16:06:21.993Z,184.18
2023-03-02T16:09:25.826Z,109.00
2023-03-02T16:12:27.824Z,117.88
2023-03-02T16:15:29.705Z,203.43
2023-03-02T16:18:31.999Z,59.33
2023-03-02T16:21:33.760Z,68.88
2023-03-02T16:24:35.738Z,14.88
2023-03-02T16:27:37.712Z,12.90
2023-03-02T16:30:40.874Z,9.15
2023-03-02T16:33:43.241Z,8.20
2023-03-02T16:36:45.033Z,8.50
2023-03-02T16:39:47.118Z,9.13
2023-03-02T16:42:50.982Z,9.00
2023-03-02T16:45:53.123Z,7.72
2023-03-02T16:48:55.825Z,9.05
2023-03-02T16:51:59.117Z,13.85
2023-03-02T16:55:01.105Z,13.68
2023-03-02T16:58:02.922Z,16.52
2023-03-02T17:01:06.549Z,9.00
2023-03-02T17:04:08.883Z,8.45
2023-03-02T17:07:10.767Z,9.50
2023-03-02T17:10:16.353Z,7.78
2023-03-02T17:13:19.228Z,8.10
2023-03-02T17:16:21.053Z,8.55
2023-03-02T17:19:23.628Z,9.73
2023-03-02T17:22:25.486Z,11.67
2023-03-02T17:25:27.559Z,18.45
2023-03-02T17:28:29.574Z,13.63
2023-03-02T17:31:31.626Z,8.93
2023-03-02T17:34:34.892Z,9.13
2023-03-02T17:37:36.910Z,9.38
2023-03-02T17:40:38.736Z,7.90
2023-03-02T17:43:42.193Z,8.32
2023-03-02T17:46:45.635Z,8.55
2023-03-02T17:52:51.266Z,8.43
2023-03-02T17:55:53.222Z,8.32
2023-03-02T17:58:57.627Z,8.13
2023-03-02T18:01:59.604Z,8.20
2023-03-02T18:05:01.912Z,8.20
2023-03-02T18:08:03.960Z,8.30
2023-03-02T18:11:06.547Z,8.23
2023-03-02T18:14:09.169Z,12.03
2023-03-02T18:17:11.115Z,16.43
2023-03-02T18:20:14.009Z,23.92
2023-03-02T18:23:16.139Z,17.38
2023-03-02T18:26:18.002Z,14.32
2023-03-02T18:29:20.005Z,12.15
2023-03-02T18:32:22.674Z,17.67
2023-03-02T18:35:25.256Z,11.38
2023-03-02T18:38:30.937Z,11.87
2023-03-02T18:41:33.134Z,13.38
2023-03-02T18:44:35.288Z,15.70
2023-03-02T18:47:37.262Z,19.30
2023-03-02T18:50:39.703Z,12.23
2023-03-02T18:53:43.119Z,12.23
2023-03-02T18:59:50.092Z,8.98
2023-03-02T19:02:52.329Z,9.48
2023-03-02T19:05:58.092Z,10.95
2023-03-02T19:09:00.217Z,13.82
2023-03-02T19:12:02.545Z,10.73
2023-03-02T19:15:05.805Z,11.55
2023-03-02T19:18:08.251Z,12.48
2023-03-02T19:21:10.047Z,19.15
2023-03-02T19:24:11.902Z,18.85
2023-03-02T19:27:14.338Z,18.23
2023-03-02T19:30:20.898Z,17.23
2023-03-02T19:33:24.804Z,17.58
2023-03-02T19:36:26.903Z,19.67
2023-03-02T19:39:28.715Z,17.17
2023-03-02T19:42:33.757Z,18.45
2023-03-02T19:45:36.354Z,19.27
2023-03-02T19:48:38.951Z,17.83
2023-03-02T19:51:40.772Z,22.50
2023-03-02T19:54:43.736Z,21.38
2023-03-02T19:57:50.989Z,15.57
2023-03-02T20:00:53.113Z,16.13
2023-03-02T20:03:58.266Z,14.52
2023-03-02T20:07:00.650Z,17.52
2023-03-02T20:10:02.688Z,24.33
2023-03-02T20:13:05.911Z,18.42
2023-03-02T20:16:08.676Z,19.20
2023-03-02T20:19:13.226Z,15.48
2023-03-02T20:22:16.351Z,17.15
2023-03-02T20:25:19.870Z,17.08
2023-03-02T20:28:23.541Z,16.92
2023-03-02T20:31:25.920Z,17.45
2023-03-02T20:34:28.124Z,16.45
2023-03-02T20:37:29.986Z,16.15
2023-03-02T20:40:32.781Z,14.50
2023-03-02T20:43:34.866Z,15.75
2023-03-02T20:46:40.611Z,16.00
2023-03-02T20:49:43.084Z,19.20
2023-03-02T20:52:45.441Z,20.60
2023-03-02T20:55:47.745Z,21.17
2023-03-02T20:58:50.218Z,19.88
2023-03-02T21:01:52.279Z,15.60
2023-03-02T21:04:55.528Z,13.27
2023-03-02T21:07:57.610Z,14.13
2023-03-02T21:10:59.920Z,14.35
2023-03-02T21:14:02.301Z,13.45
2023-03-02T21:17:04.992Z,14.65
2023-03-02T21:20:07.817Z,14.13
2023-03-02T21:23:11.093Z,14.82
2023-03-02T21:26:14.012Z,13.68
2023-03-02T21:29:17.817Z,13.20
2023-03-02T21:32:19.644Z,16.38
2023-03-02T21:35:23.468Z,15.63
2023-03-02T21:38:25.295Z,18.65
2023-03-02T21:41:27.115Z,17.13
2023-03-02T21:44:29.304Z,17.60
2023-03-02T21:47:31.132Z,26.02
2023-03-02T21:50:36.577Z,20.10
2023-03-02T21:53:38.531Z,16.98
2023-03-02T21:56:40.497Z,13.77
2023-03-02T21:59:42.305Z,13.40
2023-03-02T22:02:44.302Z,12.50
2023-03-02T22:05:47.106Z,14.90
2023-03-02T22:08:49.275Z,15.30
2023-03-02T22:11:51.177Z,15.15
2023-03-02T22:14:54.157Z,15.38
2023-03-02T22:17:56.620Z,14.73
2023-03-02T22:20:58.837Z,16.07
2023-03-02T22:24:18.442Z,16.17
2023-03-02T22:27:25.038Z,16.75
2023-03-02T22:30:28.637Z,16.75
2023-03-02T22:33:33.846Z,16.02
2023-03-02T22:36:35.717Z,14.82
2023-03-02T22:39:38.611Z,14.70
2023-03-02T22:42:42.230Z,15.35
2023-03-02T22:45:44.150Z,14.25
2023-03-02T22:48:51.497Z,14.82
2023-03-02T22:51:54.096Z,14.55
2023-03-02T22:54:56.128Z,15.20
2023-03-02T22:57:57.947Z,14.68
2023-03-02T23:01:01.436Z,14.32
2023-03-02T23:04:24.499Z,14.35
2023-03-02T23:07:27.002Z,15.38
2023-03-02T23:10:28.846Z,16.03
2023-03-02T23:13:40.871Z,15.00
2023-03-02T23:16:43.012Z,15.30
2023-03-02T23:19:45.054Z,16.15
2023-03-02T23:22:47.166Z,15.05
2023-03-02T23:25:49.157Z,16.33
2023-03-02T23:28:51.562Z,15.18
2023-03-02T23:31:53.884Z,16.10
2023-03-02T23:34:56.471Z,15.93
2023-03-02T23:37:58.690Z,15.87
2023-03-02T23:41:00.599Z,16.50
2023-03-02T23:44:03.146Z,16.63
2023-03-02T23:47:04.974Z,18.03
2023-03-02T23:50:08.421Z,17.83
2023-03-02T23:56:12.329Z,18.23
2023-03-02T23:59:14.289Z,16.73
